Terminal Aerodrome Forecast
Issued by NWS Shreveport, LA

Home | Current Version | Previous Version | Text Only | Print | Product List | Glossary On
Versions: 1 2 3 4 5 6 7 8 9 10 11 12 13 14 15 16 17 18
000
FTUS44 KSHV 282340
TAFTXK
TAF
KTXK 282340Z 2900/2924 10008KT P6SM SKC
     FM291200 13004KT P6SM SCT010
     FM291500 17008KT P6SM SCT015
     FM291800 22011G18KT P6SM BKN040 BKN250=

USA.gov is the U.S. government's official web portal to all federal, state and local government web resources and services.